sensor_id;sensor_type;location;lat;lon;timestamp;P1;durP1;ratioP1;P2;durP2;ratioP2
72586;SDS011;60621;49.576;11.024;2023-04-24T00:00:45;4.85;;;2.30;;
72586;SDS011;60621;49.576;11.024;2023-04-24T00:01:46;6.30;;;2.10;;
72586;SDS011;60621;49.576;11.024;2023-04-24T00:02:48;5.13;;;1.85;;
72586;SDS011;60621;49.576;11.024;2023-04-24T00:03:50;4.97;;;1.90;;
72586;SDS011;60621;49.576;11.024;2023-04-24T00:04:52;5.15;;;2.17;;
72586;SDS011;60621;49.576;11.024;2023-04-24T00:05:54;5.68;;;2.00;;
72586;SDS011;60621;49.576;11.024;2023-04-24T00:06:56;6.18;;;1.80;;
72586;SDS011;60621;49.576;11.024;2023-04-24T00:07:58;6.07;;;2.20;;
72586;SDS011;60621;49.576;11.024;2023-04-24T00:09:00;5.20;;;2.25;;
72586;SDS011;60621;49.576;11.024;2023-04-24T00:10:02;4.45;;;2.10;;
72586;SDS011;60621;49.576;11.024;2023-04-24T00:11:03;5.38;;;2.03;;
72586;SDS011;60621;49.576;11.024;2023-04-24T00:12:05;4.90;;;2.00;;
72586;SDS011;60621;49.576;11.024;2023-04-24T00:13:07;4.45;;;1.92;;
72586;SDS011;60621;49.576;11.024;2023-04-24T00:14:09;4.82;;;2.03;;
72586;SDS011;60621;49.576;11.024;2023-04-24T00:15:10;4.40;;;1.88;;
72586;SDS011;60621;49.576;11.024;2023-04-24T00:16:12;6.70;;;2.13;;
72586;SDS011;60621;49.576;11.024;2023-04-24T00:17:14;4.78;;;1.90;;
72586;SDS011;60621;49.576;11.024;2023-04-24T00:18:15;5.78;;;2.15;;
72586;SDS011;60621;49.576;11.024;2023-04-24T00:19:17;5.35;;;2.13;;
72586;SDS011;60621;49.576;11.024;2023-04-24T00:20:22;5.88;;;2.28;;
72586;SDS011;60621;49.576;11.024;2023-04-24T00:21:24;5.07;;;1.83;;
72586;SDS011;60621;49.576;11.024;2023-04-24T00:22:27;4.90;;;2.00;;
72586;SDS011;60621;49.576;11.024;2023-04-24T00:23:29;4.43;;;1.90;;
72586;SDS011;60621;49.576;11.024;2023-04-24T00:24:31;4.90;;;1.83;;
72586;SDS011;60621;49.576;11.024;2023-04-24T00:25:33;5.78;;;2.00;;
72586;SDS011;60621;49.576;11.024;2023-04-24T00:26:34;4.20;;;1.80;;
72586;SDS011;60621;49.576;11.024;2023-04-24T00:27:36;4.68;;;1.85;;
72586;SDS011;60621;49.576;11.024;2023-04-24T00:28:38;4.25;;;1.98;;
72586;SDS011;60621;49.576;11.024;2023-04-24T00:29:40;4.90;;;2.00;;
72586;SDS011;60621;49.576;11.024;2023-04-24T00:30:42;4.60;;;1.98;;
72586;SDS011;60621;49.576;11.024;2023-04-24T00:31:43;5.28;;;2.40;;
72586;SDS011;60621;49.576;11.024;2023-04-24T00:32:46;4.65;;;2.00;;
72586;SDS011;60621;49.576;11.024;2023-04-24T00:33:47;4.70;;;2.20;;
72586;SDS011;60621;49.576;11.024;2023-04-24T00:34:49;5.25;;;2.00;;
72586;SDS011;60621;49.576;11.024;2023-04-24T00:35:50;4.63;;;2.08;;
72586;SDS011;60621;49.576;11.024;2023-04-24T00:36:52;4.82;;;2.00;;
72586;SDS011;60621;49.576;11.024;2023-04-24T00:37:54;5.22;;;2.22;;
72586;SDS011;60621;49.576;11.024;2023-04-24T00:38:56;4.70;;;2.00;;
72586;SDS011;60621;49.576;11.024;2023-04-24T00:39:58;5.97;;;1.92;;
72586;SDS011;60621;49.576;11.024;2023-04-24T00:40:59;5.05;;;2.10;;
72586;SDS011;60621;49.576;11.024;2023-04-24T00:42:01;4.55;;;2.10;;
72586;SDS011;60621;49.576;11.024;2023-04-24T00:43:03;4.63;;;2.13;;
72586;SDS011;60621;49.576;11.024;2023-04-24T00:44:04;5.05;;;2.20;;
72586;SDS011;60621;49.576;11.024;2023-04-24T00:45:06;4.82;;;2.25;;
72586;SDS011;60621;49.576;11.024;2023-04-24T00:46:08;5.03;;;2.38;;
72586;SDS011;60621;49.576;11.024;2023-04-24T00:47:10;4.93;;;2.17;;
72586;SDS011;60621;49.576;11.024;2023-04-24T00:48:12;5.18;;;2.00;;
72586;SDS011;60621;49.576;11.024;2023-04-24T00:49:14;4.50;;;2.17;;
72586;SDS011;60621;49.576;11.024;2023-04-24T00:50:15;5.15;;;2.22;;
72586;SDS011;60621;49.576;11.024;2023-04-24T00:51:17;5.68;;;2.10;;
72586;SDS011;60621;49.576;11.024;2023-04-24T00:52:19;4.38;;;1.92;;
72586;SDS011;60621;49.576;11.024;2023-04-24T00:53:21;5.50;;;2.10;;
72586;SDS011;60621;49.576;11.024;2023-04-24T00:54:23;5.47;;;2.20;;
72586;SDS011;60621;49.576;11.024;2023-04-24T00:55:25;5.05;;;1.80;;
72586;SDS011;60621;49.576;11.024;2023-04-24T00:56:27;5.50;;;1.85;;
72586;SDS011;60621;49.576;11.024;2023-04-24T00:57:29;4.63;;;2.00;;
72586;SDS011;60621;49.576;11.024;2023-04-24T00:58:31;4.43;;;1.90;;
72586;SDS011;60621;49.576;11.024;2023-04-24T00:59:33;4.70;;;1.88;;
72586;SDS011;60621;49.576;11.024;2023-04-24T01:00:35;4.20;;;1.90;;
72586;SDS011;60621;49.576;11.024;2023-04-24T01:01:37;4.70;;;2.00;;
72586;SDS011;60621;49.576;11.024;2023-04-24T01:02:43;5.15;;;2.08;;
72586;SDS011;60621;49.576;11.024;2023-04-24T01:03:46;4.65;;;1.73;;
72586;SDS011;60621;49.576;11.024;2023-04-24T01:04:50;4.47;;;1.80;;
72586;SDS011;60621;49.576;11.024;2023-04-24T01:05:52;4.28;;;1.70;;
72586;SDS011;60621;49.576;11.024;2023-04-24T01:06:55;5.30;;;1.92;;
72586;SDS011;60621;49.576;11.024;2023-04-24T01:07:58;4.13;;;1.63;;
72586;SDS011;60621;49.576;11.024;2023-04-24T01:09:00;5.10;;;1.92;;
72586;SDS011;60621;49.576;11.024;2023-04-24T01:10:02;5.13;;;1.80;;
72586;SDS011;60621;49.576;11.024;2023-04-24T01:11:04;5.22;;;1.88;;
72586;SDS011;60621;49.576;11.024;2023-04-24T01:12:06;4.28;;;1.80;;
72586;SDS011;60621;49.576;11.024;2023-04-24T01:13:08;4.25;;;1.75;;
72586;SDS011;60621;49.576;11.024;2023-04-24T01:14:09;4.53;;;2.05;;
72586;SDS011;60621;49.576;11.024;2023-04-24T01:15:11;5.30;;;1.77;;
72586;SDS011;60621;49.576;11.024;2023-04-24T01:16:13;7.15;;;2.03;;
72586;SDS011;60621;49.576;11.024;2023-04-24T01:17:16;4.07;;;1.83;;
72586;SDS011;60621;49.576;11.024;2023-04-24T01:18:18;5.60;;;2.00;;
72586;SDS011;60621;49.576;11.024;2023-04-24T01:19:19;5.20;;;1.80;;
72586;SDS011;60621;49.576;11.024;2023-04-24T01:20:21;6.32;;;2.35;;
72586;SDS011;60621;49.576;11.024;2023-04-24T01:21:23;4.60;;;1.88;;
72586;SDS011;60621;49.576;11.024;2023-04-24T01:22:28;4.82;;;2.08;;
72586;SDS011;60621;49.576;11.024;2023-04-24T01:23:30;4.88;;;2.10;;
72586;SDS011;60621;49.576;11.024;2023-04-24T01:24:31;4.68;;;1.90;;
72586;SDS011;60621;49.576;11.024;2023-04-24T01:25:33;6.65;;;2.10;;
72586;SDS011;60621;49.576;11.024;2023-04-24T01:26:35;5.57;;;1.90;;
72586;SDS011;60621;49.576;11.024;2023-04-24T01:27:37;4.60;;;1.83;;
72586;SDS011;60621;49.576;11.024;2023-04-24T01:28:39;5.00;;;2.00;;
72586;SDS011;60621;49.576;11.024;2023-04-24T01:29:40;4.30;;;1.70;;
72586;SDS011;60621;49.576;11.024;2023-04-24T01:30:43;4.05;;;1.85;;
72586;SDS011;60621;49.576;11.024;2023-04-24T01:31:45;8.02;;;2.10;;
72586;SDS011;60621;49.576;11.024;2023-04-24T01:32:46;4.32;;;2.08;;
72586;SDS011;60621;49.576;11.024;2023-04-24T01:33:49;4.45;;;1.98;;
72586;SDS011;60621;49.576;11.024;2023-04-24T01:34:52;3.90;;;1.80;;
72586;SDS011;60621;49.576;11.024;2023-04-24T01:35:53;5.95;;;2.25;;
72586;SDS011;60621;49.576;11.024;2023-04-24T01:36:55;4.78;;;1.80;;
72586;SDS011;60621;49.576;11.024;2023-04-24T01:37:57;5.90;;;2.17;;
72586;SDS011;60621;49.576;11.024;2023-04-24T01:39:00;6.40;;;2.10;;
72586;SDS011;60621;49.576;11.024;2023-04-24T01:40:01;5.80;;;2.08;;
72586;SDS011;60621;49.576;11.024;2023-04-24T01:41:04;5.47;;;2.20;;
72586;SDS011;60621;49.576;11.024;2023-04-24T01:42:06;5.57;;;1.90;;
72586;SDS011;60621;49.576;11.024;2023-04-24T01:43:08;4.65;;;1.92;;
72586;SDS011;60621;49.576;11.024;2023-04-24T01:44:09;3.95;;;1.80;;
72586;SDS011;60621;49.576;11.024;2023-04-24T01:45:11;6.32;;;2.05;;
72586;SDS011;60621;49.576;11.024;2023-04-24T01:46:14;5.10;;;1.75;;
72586;SDS011;60621;49.576;11.024;2023-04-24T01:47:16;5.07;;;1.90;;
72586;SDS011;60621;49.576;11.024;2023-04-24T01:48:18;5.03;;;1.90;;
72586;SDS011;60621;49.576;11.024;2023-04-24T01:49:19;4.05;;;2.00;;
72586;SDS011;60621;49.576;11.024;2023-04-24T01:50:21;5.10;;;1.80;;
72586;SDS011;60621;49.576;11.024;2023-04-24T01:51:23;4.78;;;1.98;;
72586;SDS011;60621;49.576;11.024;2023-04-24T01:52:24;4.82;;;1.95;;
72586;SDS011;60621;49.576;11.024;2023-04-24T01:53:26;4.15;;;1.92;;
72586;SDS011;60621;49.576;11.024;2023-04-24T01:54:28;4.70;;;1.77;;
72586;SDS011;60621;49.576;11.024;2023-04-24T01:55:29;5.05;;;1.77;;
72586;SDS011;60621;49.576;11.024;2023-04-24T01:56:33;3.83;;;1.65;;
72586;SDS011;60621;49.576;11.024;2023-04-24T01:57:36;4.13;;;1.50;;
72586;SDS011;60621;49.576;11.024;2023-04-24T01:58:37;5.38;;;1.63;;
72586;SDS011;60621;49.576;11.024;2023-04-24T01:59:39;4.78;;;2.05;;
72586;SDS011;60621;49.576;11.024;2023-04-24T02:00:41;4.75;;;1.77;;
72586;SDS011;60621;49.576;11.024;2023-04-24T02:01:43;3.92;;;1.80;;
72586;SDS011;60621;49.576;11.024;2023-04-24T02:02:44;3.80;;;1.70;;
72586;SDS011;60621;49.576;11.024;2023-04-24T02:03:48;4.53;;;1.60;;
72586;SDS011;60621;49.576;11.024;2023-04-24T02:04:50;4.82;;;2.00;;
72586;SDS011;60621;49.576;11.024;2023-04-24T02:05:52;4.85;;;2.03;;
72586;SDS011;60621;49.576;11.024;2023-04-24T02:06:53;4.15;;;1.70;;
72586;SDS011;60621;49.576;11.024;2023-04-24T02:07:55;5.45;;;1.80;;
72586;SDS011;60621;49.576;11.024;2023-04-24T02:08:57;4.60;;;1.83;;
72586;SDS011;60621;49.576;11.024;2023-04-24T02:10:00;3.80;;;1.50;;
72586;SDS011;60621;49.576;11.024;2023-04-24T02:11:02;4.45;;;1.90;;
72586;SDS011;60621;49.576;11.024;2023-04-24T02:12:03;5.03;;;1.80;;
72586;SDS011;60621;49.576;11.024;2023-04-24T02:13:05;4.45;;;2.03;;
72586;SDS011;60621;49.576;11.024;2023-04-24T02:14:06;4.57;;;1.65;;
72586;SDS011;60621;49.576;11.024;2023-04-24T02:15:08;5.28;;;1.92;;
72586;SDS011;60621;49.576;11.024;2023-04-24T02:16:10;5.25;;;1.95;;
72586;SDS011;60621;49.576;11.024;2023-04-24T02:17:12;4.97;;;1.70;;
72586;SDS011;60621;49.576;11.024;2023-04-24T02:18:14;3.85;;;1.73;;
72586;SDS011;60621;49.576;11.024;2023-04-24T02:19:16;3.92;;;1.67;;
72586;SDS011;60621;49.576;11.024;2023-04-24T02:20:18;4.28;;;1.90;;
72586;SDS011;60621;49.576;11.024;2023-04-24T02:21:20;3.53;;;1.58;;
72586;SDS011;60621;49.576;11.024;2023-04-24T02:22:21;5.05;;;1.90;;
72586;SDS011;60621;49.576;11.024;2023-04-24T02:23:23;4.40;;;1.65;;
72586;SDS011;60621;49.576;11.024;2023-04-24T02:24:24;4.82;;;2.10;;
72586;SDS011;60621;49.576;11.024;2023-04-24T02:25:26;4.45;;;1.63;;
72586;SDS011;60621;49.576;11.024;2023-04-24T02:26:27;4.20;;;1.92;;
72586;SDS011;60621;49.576;11.024;2023-04-24T02:27:29;4.75;;;1.70;;
72586;SDS011;60621;49.576;11.024;2023-04-24T02:28:31;5.40;;;2.00;;
72586;SDS011;60621;49.576;11.024;2023-04-24T02:29:32;4.68;;;1.88;;
72586;SDS011;60621;49.576;11.024;2023-04-24T02:30:34;4.75;;;1.95;;
72586;SDS011;60621;49.576;11.024;2023-04-24T02:31:36;4.25;;;1.90;;
72586;SDS011;60621;49.576;11.024;2023-04-24T02:32:38;6.07;;;1.95;;
72586;SDS011;60621;49.576;11.024;2023-04-24T02:33:40;3.60;;;1.80;;
72586;SDS011;60621;49.576;11.024;2023-04-24T02:34:42;4.03;;;1.80;;
72586;SDS011;60621;49.576;11.024;2023-04-24T02:35:43;4.00;;;1.60;;
72586;SDS011;60621;49.576;11.024;2023-04-24T02:36:45;5.60;;;1.60;;
72586;SDS011;60621;49.576;11.024;2023-04-24T02:37:46;4.53;;;2.08;;
72586;SDS011;60621;49.576;11.024;2023-04-24T02:38:48;4.68;;;2.00;;
72586;SDS011;60621;49.576;11.024;2023-04-24T02:39:49;5.07;;;1.70;;
72586;SDS011;60621;49.576;11.024;2023-04-24T02:40:51;5.35;;;1.83;;
72586;SDS011;60621;49.576;11.024;2023-04-24T02:41:52;4.13;;;1.60;;
72586;SDS011;60621;49.576;11.024;2023-04-24T02:42:53;6.82;;;1.60;;
72586;SDS011;60621;49.576;11.024;2023-04-24T02:43:55;4.55;;;1.50;;
72586;SDS011;60621;49.576;11.024;2023-04-24T02:44:56;4.10;;;1.70;;
72586;SDS011;60621;49.576;11.024;2023-04-24T02:45:58;3.50;;;1.60;;
72586;SDS011;60621;49.576;11.024;2023-04-24T02:47:00;4.05;;;1.67;;
72586;SDS011;60621;49.576;11.024;2023-04-24T02:48:02;3.70;;;1.70;;
72586;SDS011;60621;49.576;11.024;2023-04-24T02:49:03;4.32;;;1.58;;
72586;SDS011;60621;49.576;11.024;2023-04-24T02:50:05;4.07;;;1.70;;
72586;SDS011;60621;49.576;11.024;2023-04-24T02:51:07;4.13;;;1.58;;
72586;SDS011;60621;49.576;11.024;2023-04-24T02:52:09;4.57;;;1.50;;
72586;SDS011;60621;49.576;11.024;2023-04-24T02:53:11;4.07;;;1.60;;
72586;SDS011;60621;49.576;11.024;2023-04-24T02:54:13;3.47;;;1.33;;
72586;SDS011;60621;49.576;11.024;2023-04-24T02:55:14;4.30;;;1.75;;
72586;SDS011;60621;49.576;11.024;2023-04-24T02:56:16;4.00;;;1.65;;
72586;SDS011;60621;49.576;11.024;2023-04-24T02:57:17;3.72;;;1.45;;
72586;SDS011;60621;49.576;11.024;2023-04-24T02:58:19;4.78;;;1.65;;
72586;SDS011;60621;49.576;11.024;2023-04-24T02:59:21;3.60;;;1.40;;
72586;SDS011;60621;49.576;11.024;2023-04-24T03:00:22;6.05;;;1.60;;
72586;SDS011;60621;49.576;11.024;2023-04-24T03:01:24;3.30;;;1.30;;
72586;SDS011;60621;49.576;11.024;2023-04-24T03:02:26;3.90;;;1.50;;
72586;SDS011;60621;49.576;11.024;2023-04-24T03:03:28;3.95;;;1.50;;
72586;SDS011;60621;49.576;11.024;2023-04-24T03:04:30;3.50;;;1.40;;
72586;SDS011;60621;49.576;11.024;2023-04-24T03:05:32;4.28;;;1.73;;
72586;SDS011;60621;49.576;11.024;2023-04-24T03:06:33;4.60;;;1.60;;
72586;SDS011;60621;49.576;11.024;2023-04-24T03:07:37;4.85;;;1.52;;
72586;SDS011;60621;49.576;11.024;2023-04-24T03:08:38;3.80;;;1.50;;
72586;SDS011;60621;49.576;11.024;2023-04-24T03:09:40;3.40;;;1.50;;
72586;SDS011;60621;49.576;11.024;2023-04-24T03:10:42;6.22;;;1.60;;
72586;SDS011;60621;49.576;11.024;2023-04-24T03:11:46;6.32;;;1.60;;
72586;SDS011;60621;49.576;11.024;2023-04-24T03:12:48;4.15;;;1.58;;
72586;SDS011;60621;49.576;11.024;2023-04-24T03:13:50;4.47;;;1.50;;
72586;SDS011;60621;49.576;11.024;2023-04-24T03:14:52;3.58;;;1.50;;
72586;SDS011;60621;49.576;11.024;2023-04-24T03:15:53;4.65;;;1.70;;
72586;SDS011;60621;49.576;11.024;2023-04-24T03:16:55;3.47;;;1.40;;
72586;SDS011;60621;49.576;11.024;2023-04-24T03:17:57;3.25;;;1.30;;
72586;SDS011;60621;49.576;11.024;2023-04-24T03:18:59;4.22;;;1.42;;
72586;SDS011;60621;49.576;11.024;2023-04-24T03:20:01;3.58;;;1.50;;
72586;SDS011;60621;49.576;11.024;2023-04-24T03:21:02;3.53;;;1.27;;
72586;SDS011;60621;49.576;11.024;2023-04-24T03:22:05;3.28;;;1.33;;
72586;SDS011;60621;49.576;11.024;2023-04-24T03:23:06;3.60;;;1.40;;
72586;SDS011;60621;49.576;11.024;2023-04-24T03:24:08;3.03;;;1.02;;
72586;SDS011;60621;49.576;11.024;2023-04-24T03:25:10;3.58;;;1.40;;
72586;SDS011;60621;49.576;11.024;2023-04-24T03:26:12;3.38;;;1.30;;
72586;SDS011;60621;49.576;11.024;2023-04-24T03:27:13;3.88;;;1.50;;
72586;SDS011;60621;49.576;11.024;2023-04-24T03:28:15;3.15;;;1.30;;
72586;SDS011;60621;49.576;11.024;2023-04-24T03:29:17;5.15;;;1.25;;
72586;SDS011;60621;49.576;11.024;2023-04-24T03:30:18;3.97;;;1.50;;
72586;SDS011;60621;49.576;11.024;2023-04-24T03:31:20;3.97;;;1.35;;
72586;SDS011;60621;49.576;11.024;2023-04-24T03:32:22;3.95;;;1.55;;
72586;SDS011;60621;49.576;11.024;2023-04-24T03:33:24;3.60;;;1.33;;
72586;SDS011;60621;49.576;11.024;2023-04-24T03:34:26;3.38;;;1.35;;
72586;SDS011;60621;49.576;11.024;2023-04-24T03:35:27;3.65;;;1.40;;
72586;SDS011;60621;49.576;11.024;2023-04-24T03:36:30;3.90;;;1.40;;
72586;SDS011;60621;49.576;11.024;2023-04-24T03:37:32;4.82;;;1.30;;
72586;SDS011;60621;49.576;11.024;2023-04-24T03:38:34;4.57;;;1.30;;
72586;SDS011;60621;49.576;11.024;2023-04-24T03:39:35;5.32;;;1.48;;
72586;SDS011;60621;49.576;11.024;2023-04-24T03:40:37;3.58;;;1.45;;
72586;SDS011;60621;49.576;11.024;2023-04-24T03:41:39;4.85;;;1.30;;
72586;SDS011;60621;49.576;11.024;2023-04-24T03:42:40;3.17;;;1.25;;
72586;SDS011;60621;49.576;11.024;2023-04-24T03:43:42;3.30;;;1.30;;
72586;SDS011;60621;49.576;11.024;2023-04-24T03:44:44;4.47;;;1.25;;
72586;SDS011;60621;49.576;11.024;2023-04-24T03:45:45;3.10;;;1.20;;
72586;SDS011;60621;49.576;11.024;2023-04-24T03:46:48;3.30;;;1.40;;
72586;SDS011;60621;49.576;11.024;2023-04-24T03:47:49;4.30;;;1.50;;
72586;SDS011;60621;49.576;11.024;2023-04-24T03:48:51;3.78;;;1.27;;
72586;SDS011;60621;49.576;11.024;2023-04-24T03:49:52;3.45;;;1.27;;
72586;SDS011;60621;49.576;11.024;2023-04-24T03:50:55;3.58;;;1.20;;
72586;SDS011;60621;49.576;11.024;2023-04-24T03:51:57;4.07;;;1.38;;
72586;SDS011;60621;49.576;11.024;2023-04-24T03:52:58;2.90;;;1.15;;
72586;SDS011;60621;49.576;11.024;2023-04-24T03:54:00;4.13;;;1.30;;
72586;SDS011;60621;49.576;11.024;2023-04-24T03:55:01;3.53;;;1.30;;
72586;SDS011;60621;49.576;11.024;2023-04-24T03:56:03;4.55;;;1.40;;
72586;SDS011;60621;49.576;11.024;2023-04-24T03:57:05;3.55;;;1.40;;
72586;SDS011;60621;49.576;11.024;2023-04-24T03:58:06;3.10;;;1.10;;
72586;SDS011;60621;49.576;11.024;2023-04-24T03:59:08;3.47;;;1.38;;
72586;SDS011;60621;49.576;11.024;2023-04-24T04:00:10;4.55;;;1.38;;
72586;SDS011;60621;49.576;11.024;2023-04-24T04:01:12;3.78;;;1.50;;
72586;SDS011;60621;49.576;11.024;2023-04-24T04:02:14;3.08;;;1.20;;
72586;SDS011;60621;49.576;11.024;2023-04-24T04:03:16;3.60;;;1.30;;
72586;SDS011;60621;49.576;11.024;2023-04-24T04:04:17;6.60;;;1.40;;
72586;SDS011;60621;49.576;11.024;2023-04-24T04:05:19;3.08;;;1.20;;
72586;SDS011;60621;49.576;11.024;2023-04-24T04:06:22;4.22;;;1.50;;
72586;SDS011;60621;49.576;11.024;2023-04-24T04:07:23;4.53;;;1.38;;
72586;SDS011;60621;49.576;11.024;2023-04-24T04:08:25;4.60;;;1.42;;
72586;SDS011;60621;49.576;11.024;2023-04-24T04:09:26;3.30;;;1.30;;
72586;SDS011;60621;49.576;11.024;2023-04-24T04:10:28;4.65;;;1.40;;
72586;SDS011;60621;49.576;11.024;2023-04-24T04:11:30;3.42;;;1.40;;
72586;SDS011;60621;49.576;11.024;2023-04-24T04:12:32;4.75;;;1.40;;
72586;SDS011;60621;49.576;11.024;2023-04-24T04:13:33;3.47;;;1.40;;
72586;SDS011;60621;49.576;11.024;2023-04-24T04:14:35;3.60;;;1.50;;
72586;SDS011;60621;49.576;11.024;2023-04-24T04:15:36;3.83;;;1.52;;
72586;SDS011;60621;49.576;11.024;2023-04-24T04:16:38;4.10;;;1.33;;
72586;SDS011;60621;49.576;11.024;2023-04-24T04:17:39;4.40;;;1.67;;
72586;SDS011;60621;49.576;11.024;2023-04-24T04:18:41;4.47;;;1.70;;
72586;SDS011;60621;49.576;11.024;2023-04-24T04:19:43;4.43;;;1.50;;
72586;SDS011;60621;49.576;11.024;2023-04-24T04:20:45;4.45;;;1.50;;
72586;SDS011;60621;49.576;11.024;2023-04-24T04:21:47;3.33;;;1.30;;
72586;SDS011;60621;49.576;11.024;2023-04-24T04:22:53;3.95;;;1.30;;
72586;SDS011;60621;49.576;11.024;2023-04-24T04:23:54;3.22;;;1.42;;
72586;SDS011;60621;49.576;11.024;2023-04-24T04:24:56;3.50;;;1.40;;
72586;SDS011;60621;49.576;11.024;2023-04-24T04:25:58;3.58;;;1.30;;
72586;SDS011;60621;49.576;11.024;2023-04-24T04:26:59;3.50;;;1.33;;
72586;SDS011;60621;49.576;11.024;2023-04-24T04:28:01;3.95;;;1.42;;
72586;SDS011;60621;49.576;11.024;2023-04-24T04:29:03;3.70;;;1.50;;
72586;SDS011;60621;49.576;11.024;2023-04-24T04:30:05;4.35;;;1.60;;
72586;SDS011;60621;49.576;11.024;2023-04-24T04:31:07;3.55;;;1.55;;
72586;SDS011;60621;49.576;11.024;2023-04-24T04:32:08;4.20;;;1.23;;
72586;SDS011;60621;49.576;11.024;2023-04-24T04:33:10;4.07;;;1.55;;
72586;SDS011;60621;49.576;11.024;2023-04-24T04:34:12;3.45;;;1.33;;
72586;SDS011;60621;49.576;11.024;2023-04-24T04:35:14;4.68;;;1.67;;
72586;SDS011;60621;49.576;11.024;2023-04-24T04:36:16;4.93;;;1.30;;
72586;SDS011;60621;49.576;11.024;2023-04-24T04:38:20;3.78;;;1.27;;
72586;SDS011;60621;49.576;11.024;2023-04-24T04:39:22;4.63;;;1.60;;
72586;SDS011;60621;49.576;11.024;2023-04-24T04:40:23;4.07;;;1.50;;
72586;SDS011;60621;49.576;11.024;2023-04-24T04:41:25;3.60;;;1.58;;
72586;SDS011;60621;49.576;11.024;2023-04-24T04:42:27;6.30;;;1.50;;
72586;SDS011;60621;49.576;11.024;2023-04-24T04:43:29;4.43;;;1.60;;
72586;SDS011;60621;49.576;11.024;2023-04-24T04:44:32;3.47;;;1.30;;
72586;SDS011;60621;49.576;11.024;2023-04-24T04:45:34;3.33;;;1.38;;
72586;SDS011;60621;49.576;11.024;2023-04-24T04:46:35;4.00;;;1.35;;
72586;SDS011;60621;49.576;11.024;2023-04-24T04:47:38;4.68;;;1.67;;
72586;SDS011;60621;49.576;11.024;2023-04-24T04:48:40;5.40;;;1.63;;
72586;SDS011;60621;49.576;11.024;2023-04-24T04:49:42;4.13;;;1.70;;
72586;SDS011;60621;49.576;11.024;2023-04-24T04:50:45;4.32;;;1.73;;
72586;SDS011;60621;49.576;11.024;2023-04-24T04:51:46;3.95;;;1.45;;
72586;SDS011;60621;49.576;11.024;2023-04-24T04:52:48;6.10;;;1.50;;
72586;SDS011;60621;49.576;11.024;2023-04-24T04:53:50;5.05;;;1.70;;
72586;SDS011;60621;49.576;11.024;2023-04-24T04:54:51;3.95;;;1.70;;
72586;SDS011;60621;49.576;11.024;2023-04-24T04:55:53;3.92;;;1.70;;
72586;SDS011;60621;49.576;11.024;2023-04-24T04:56:55;4.25;;;1.67;;
72586;SDS011;60621;49.576;11.024;2023-04-24T04:57:56;4.85;;;1.88;;
72586;SDS011;60621;49.576;11.024;2023-04-24T04:58:58;3.33;;;1.35;;
72586;SDS011;60621;49.576;11.024;2023-04-24T05:00:00;5.32;;;2.00;;
72586;SDS011;60621;49.576;11.024;2023-04-24T05:01:02;4.20;;;1.70;;
72586;SDS011;60621;49.576;11.024;2023-04-24T05:02:04;4.55;;;1.58;;
72586;SDS011;60621;49.576;11.024;2023-04-24T05:03:06;3.55;;;1.50;;
72586;SDS011;60621;49.576;11.024;2023-04-24T05:04:21;4.65;;;1.50;;
72586;SDS011;60621;49.576;11.024;2023-04-24T05:05:23;3.80;;;1.30;;
72586;SDS011;60621;49.576;11.024;2023-04-24T05:06:24;3.45;;;1.40;;
72586;SDS011;60621;49.576;11.024;2023-04-24T05:07:30;4.57;;;1.50;;
72586;SDS011;60621;49.576;11.024;2023-04-24T05:08:31;4.15;;;1.50;;
72586;SDS011;60621;49.576;11.024;2023-04-24T05:09:33;4.45;;;1.40;;
72586;SDS011;60621;49.576;11.024;2023-04-24T05:10:35;4.10;;;1.50;;
72586;SDS011;60621;49.576;11.024;2023-04-24T05:11:38;3.78;;;1.55;;
72586;SDS011;60621;49.576;11.024;2023-04-24T05:12:39;4.00;;;1.58;;
72586;SDS011;60621;49.576;11.024;2023-04-24T05:13:40;4.00;;;1.45;;
72586;SDS011;60621;49.576;11.024;2023-04-24T05:14:42;4.47;;;1.67;;
72586;SDS011;60621;49.576;11.024;2023-04-24T05:15:44;4.30;;;1.67;;
72586;SDS011;60621;49.576;11.024;2023-04-24T05:16:46;3.55;;;1.65;;
72586;SDS011;60621;49.576;11.024;2023-04-24T05:17:47;4.22;;;1.40;;
72586;SDS011;60621;49.576;11.024;2023-04-24T05:18:49;4.30;;;1.88;;
72586;SDS011;60621;49.576;11.024;2023-04-24T05:19:51;3.80;;;1.40;;
72586;SDS011;60621;49.576;11.024;2023-04-24T05:20:53;5.05;;;1.63;;
72586;SDS011;60621;49.576;11.024;2023-04-24T05:21:54;3.90;;;1.60;;
72586;SDS011;60621;49.576;11.024;2023-04-24T05:22:56;4.85;;;1.77;;
72586;SDS011;60621;49.576;11.024;2023-04-24T05:23:57;4.88;;;1.60;;
72586;SDS011;60621;49.576;11.024;2023-04-24T05:24:59;4.57;;;1.60;;
72586;SDS011;60621;49.576;11.024;2023-04-24T05:26:00;3.80;;;1.60;;
72586;SDS011;60621;49.576;11.024;2023-04-24T05:27:07;4.85;;;1.60;;
72586;SDS011;60621;49.576;11.024;2023-04-24T05:28:08;3.90;;;1.65;;
72586;SDS011;60621;49.576;11.024;2023-04-24T05:29:15;4.65;;;1.52;;
72586;SDS011;60621;49.576;11.024;2023-04-24T05:30:43;3.60;;;1.50;;
72586;SDS011;60621;49.576;11.024;2023-04-24T05:31:48;4.40;;;1.83;;
72586;SDS011;60621;49.576;11.024;2023-04-24T05:32:56;4.40;;;1.80;;
72586;SDS011;60621;49.576;11.024;2023-04-24T05:34:00;4.03;;;1.70;;
72586;SDS011;60621;49.576;11.024;2023-04-24T05:35:02;4.00;;;1.55;;
72586;SDS011;60621;49.576;11.024;2023-04-24T05:36:04;6.63;;;2.00;;
72586;SDS011;60621;49.576;11.024;2023-04-24T05:37:07;5.40;;;1.70;;
72586;SDS011;60621;49.576;11.024;2023-04-24T05:38:11;4.57;;;1.83;;
72586;SDS011;60621;49.576;11.024;2023-04-24T05:39:13;4.38;;;1.80;;
72586;SDS011;60621;49.576;11.024;2023-04-24T05:40:14;4.18;;;1.80;;
72586;SDS011;60621;49.576;11.024;2023-04-24T05:41:16;5.50;;;1.58;;
72586;SDS011;60621;49.576;11.024;2023-04-24T05:42:18;4.75;;;1.80;;
72586;SDS011;60621;49.576;11.024;2023-04-24T05:43:20;4.03;;;1.83;;
72586;SDS011;60621;49.576;11.024;2023-04-24T05:44:21;4.60;;;1.83;;
72586;SDS011;60621;49.576;11.024;2023-04-24T05:45:23;4.22;;;1.80;;
72586;SDS011;60621;49.576;11.024;2023-04-24T05:46:24;5.35;;;2.20;;
72586;SDS011;60621;49.576;11.024;2023-04-24T05:47:26;4.68;;;1.80;;
72586;SDS011;60621;49.576;11.024;2023-04-24T05:48:28;5.25;;;1.70;;
72586;SDS011;60621;49.576;11.024;2023-04-24T05:49:29;5.07;;;1.70;;
72586;SDS011;60621;49.576;11.024;2023-04-24T05:50:31;4.20;;;1.90;;
72586;SDS011;60621;49.576;11.024;2023-04-24T05:51:35;5.65;;;2.15;;
72586;SDS011;60621;49.576;11.024;2023-04-24T05:52:37;4.68;;;2.03;;
72586;SDS011;60621;49.576;11.024;2023-04-24T05:53:38;5.90;;;1.85;;
72586;SDS011;60621;49.576;11.024;2023-04-24T05:54:40;4.45;;;1.80;;
72586;SDS011;60621;49.576;11.024;2023-04-24T05:55:42;4.72;;;2.17;;
72586;SDS011;60621;49.576;11.024;2023-04-24T05:56:43;4.50;;;1.90;;
72586;SDS011;60621;49.576;11.024;2023-04-24T05:57:45;4.43;;;1.88;;
72586;SDS011;60621;49.576;11.024;2023-04-24T05:58:47;7.72;;;1.92;;
72586;SDS011;60621;49.576;11.024;2023-04-24T05:59:48;5.43;;;1.73;;
72586;SDS011;60621;49.576;11.024;2023-04-24T06:00:50;4.03;;;1.90;;
72586;SDS011;60621;49.576;11.024;2023-04-24T06:01:52;4.47;;;1.83;;
72586;SDS011;60621;49.576;11.024;2023-04-24T06:02:53;6.13;;;1.90;;
72586;SDS011;60621;49.576;11.024;2023-04-24T06:03:55;6.90;;;1.80;;
72586;SDS011;60621;49.576;11.024;2023-04-24T06:05:00;4.90;;;1.80;;
72586;SDS011;60621;49.576;11.024;2023-04-24T06:06:03;4.70;;;1.67;;
72586;SDS011;60621;49.576;11.024;2023-04-24T06:07:04;3.92;;;1.50;;
72586;SDS011;60621;49.576;11.024;2023-04-24T06:08:06;4.45;;;1.75;;
72586;SDS011;60621;49.576;11.024;2023-04-24T06:09:08;4.85;;;1.60;;